FJI411 NFFN-NZAA
Flight info
| Callsign | FJI411 |
|---|---|
| Flight time | N/A |
| Altitude | 41000 |
| Route | FOXTRO AGTOS A578 KALAG |
| Aircraft | A332/H-SDE3GHIJ2J3J5M1RVWXY/LB2D1 |
Departure
| Time | 2026-05-06 23:32 |
|---|---|
| Airport | Nadi International Airport (NFFN) |
Arrival
| Time | N/A |
|---|---|
| Airport | Auckland International Airport (NZAA) |
| Time | Latitude | Longitude | Altitude | Speed | Heading |
|---|---|---|---|---|---|
| 2026-05-06 23:22 | -17.75145 | 177.45125 | 52 ft | 5 kts | 193° |
| 2026-05-06 23:25 | -17.75144 | 177.45126 | 49 ft | 0 kts | 194° |
| 2026-05-06 23:26 | -17.75137 | 177.45128 | 50 ft | 1 kts | 208° |
| 2026-05-06 23:26 | -17.75129 | 177.45132 | 50 ft | 1 kts | 210° |
| 2026-05-06 23:26 | -17.75120 | 177.45138 | 51 ft | 2 kts | 210° |
| 2026-05-06 23:26 | -17.75106 | 177.45146 | 50 ft | 2 kts | 211° |
| 2026-05-06 23:27 | -17.75094 | 177.45158 | 50 ft | 2 kts | 250° |
| 2026-05-06 23:27 | -17.75092 | 177.45163 | 50 ft | 0 kts | 270° |
| 2026-05-06 23:30 | -17.75313 | 177.43633 | 46 ft | 0 kts | 104° |
| 2026-05-06 23:32 | -17.75346 | 177.43768 | 47 ft | 57 kts | 105° |
| 2026-05-06 23:32 | -17.75509 | 177.44440 | 53 ft | 131 kts | 103° |
| 2026-05-06 23:32 | -17.75756 | 177.45512 | 429 ft | 168 kts | 105° |
| 2026-05-06 23:32 | -17.76086 | 177.46743 | 1283 ft | 181 kts | 110° |
| 2026-05-06 23:33 | -17.76824 | 177.47859 | 2276 ft | 203 kts | 142° |
| 2026-05-06 23:33 | -17.78236 | 177.48300 | 2814 ft | 231 kts | 179° |
| 2026-05-06 23:33 | -17.79774 | 177.47626 | 3376 ft | 256 kts | 217° |
| 2026-05-06 23:33 | -17.80815 | 177.46030 | 3989 ft | 274 kts | 242° |
| 2026-05-06 23:34 | -17.81669 | 177.44225 | 4928 ft | 277 kts | 240° |
| 2026-05-06 23:34 | -17.82642 | 177.42478 | 5921 ft | 279 kts | 236° |
| 2026-05-06 23:34 | -17.83717 | 177.40817 | 6908 ft | 279 kts | 233° |
| 2026-05-06 23:34 | -17.84878 | 177.39179 | 7882 ft | 281 kts | 232° |
| 2026-05-06 23:35 | -17.86089 | 177.37559 | 8864 ft | 284 kts | 231° |
| 2026-05-06 23:35 | -17.87335 | 177.35942 | 9855 ft | 285 kts | 230° |
| 2026-05-06 23:35 | -17.88612 | 177.34305 | 10548 ft | 298 kts | 229° |
| 2026-05-06 23:35 | -17.90164 | 177.32762 | 10871 ft | 320 kts | 210° |
| 2026-05-06 23:36 | -17.92322 | 177.32046 | 11323 ft | 334 kts | 186° |
| 2026-05-06 23:36 | -17.94665 | 177.31901 | 12038 ft | 341 kts | 182° |
| 2026-05-06 23:36 | -17.97021 | 177.31806 | 12793 ft | 345 kts | 183° |
| 2026-05-06 23:36 | -17.99430 | 177.31679 | 13596 ft | 348 kts | 184° |
| 2026-05-06 23:37 | -18.01858 | 177.31520 | 14286 ft | 351 kts | 185° |
| 2026-05-06 23:37 | -18.04305 | 177.31341 | 15008 ft | 353 kts | 185° |
| 2026-05-06 23:37 | -18.06760 | 177.31151 | 15777 ft | 354 kts | 186° |
| 2026-05-06 23:37 | -18.09225 | 177.30953 | 16532 ft | 356 kts | 186° |
| 2026-05-06 23:38 | -18.11697 | 177.30752 | 17267 ft | 357 kts | 186° |
| 2026-05-06 23:38 | -18.14176 | 177.30549 | 18016 ft | 359 kts | 186° |
| 2026-05-06 23:38 | -18.16638 | 177.30346 | 18637 ft | 361 kts | 187° |
| 2026-05-06 23:38 | -18.19157 | 177.30137 | 19186 ft | 365 kts | 187° |
| 2026-05-06 23:39 | -18.21703 | 177.29926 | 19725 ft | 369 kts | 187° |
| 2026-05-06 23:39 | -18.24280 | 177.29712 | 20276 ft | 373 kts | 187° |
| 2026-05-06 23:39 | -18.26875 | 177.29497 | 20828 ft | 376 kts | 187° |
| 2026-05-06 23:39 | -18.29496 | 177.29279 | 21374 ft | 380 kts | 187° |
| 2026-05-06 23:40 | -18.32140 | 177.29059 | 21919 ft | 383 kts | 187° |
| 2026-05-06 23:40 | -18.34806 | 177.28838 | 22477 ft | 386 kts | 188° |
| 2026-05-06 23:40 | -18.37460 | 177.28617 | 23010 ft | 390 kts | 188° |
| 2026-05-06 23:40 | -18.40178 | 177.28391 | 23540 ft | 393 kts | 188° |
| 2026-05-06 23:41 | -18.42912 | 177.28164 | 24045 ft | 395 kts | 188° |
| 2026-05-06 23:41 | -18.45652 | 177.27937 | 24546 ft | 396 kts | 188° |
| 2026-05-06 23:41 | -18.48406 | 177.27708 | 24992 ft | 399 kts | 188° |
| 2026-05-06 23:41 | -18.51184 | 177.27477 | 25438 ft | 401 kts | 188° |
| 2026-05-06 23:42 | -18.53974 | 177.27244 | 25897 ft | 404 kts | 189° |
| 2026-05-06 23:42 | -18.56744 | 177.27013 | 26322 ft | 406 kts | 189° |
| 2026-05-06 23:42 | -18.59569 | 177.26778 | 26765 ft | 409 kts | 189° |
| 2026-05-06 23:42 | -18.62410 | 177.26541 | 27201 ft | 411 kts | 189° |
| 2026-05-06 23:43 | -18.65273 | 177.26303 | 27633 ft | 413 kts | 189° |
| 2026-05-06 23:43 | -18.68147 | 177.26063 | 28064 ft | 416 kts | 189° |
| 2026-05-06 23:43 | -18.71039 | 177.25822 | 28494 ft | 418 kts | 189° |
| 2026-05-06 23:43 | -18.73948 | 177.25579 | 28912 ft | 421 kts | 189° |
| 2026-05-06 23:44 | -18.76880 | 177.25334 | 29347 ft | 423 kts | 190° |
| 2026-05-06 23:44 | -18.79785 | 177.25092 | 29746 ft | 426 kts | 190° |
| 2026-05-06 23:44 | -18.82747 | 177.24844 | 30120 ft | 428 kts | 190° |
| 2026-05-06 23:44 | -18.85724 | 177.24596 | 30440 ft | 431 kts | 190° |
| 2026-05-06 23:45 | -18.88718 | 177.24346 | 30768 ft | 433 kts | 190° |
| 2026-05-06 23:45 | -18.91725 | 177.24094 | 31101 ft | 434 kts | 190° |
| 2026-05-06 23:45 | -18.94749 | 177.23842 | 31438 ft | 436 kts | 189° |
| 2026-05-06 23:45 | -18.97781 | 177.23588 | 31775 ft | 438 kts | 189° |
| 2026-05-06 23:46 | -19.00819 | 177.23334 | 32181 ft | 438 kts | 189° |
| 2026-05-06 23:46 | -19.03845 | 177.23083 | 32690 ft | 435 kts | 189° |
| 2026-05-06 23:46 | -19.06811 | 177.22835 | 33191 ft | 432 kts | 189° |
| 2026-05-06 23:46 | -19.09802 | 177.22585 | 33687 ft | 430 kts | 189° |
| 2026-05-06 23:47 | -19.12782 | 177.22336 | 34192 ft | 428 kts | 190° |
| 2026-05-06 23:47 | -19.15738 | 177.22089 | 34620 ft | 425 kts | 190° |
| 2026-05-06 23:47 | -19.18683 | 177.21841 | 35014 ft | 424 kts | 190° |
| 2026-05-06 23:47 | -19.21620 | 177.21595 | 35400 ft | 423 kts | 190° |
| 2026-05-06 23:48 | -19.24548 | 177.21349 | 35798 ft | 422 kts | 190° |
| 2026-05-06 23:48 | -19.27433 | 177.21107 | 36186 ft | 420 kts | 190° |
| 2026-05-06 23:48 | -19.30344 | 177.20862 | 36558 ft | 419 kts | 190° |
| 2026-05-06 23:48 | -19.33243 | 177.20589 | 36928 ft | 417 kts | 191° |
| 2026-05-06 23:49 | -19.36125 | 177.20274 | 37304 ft | 416 kts | 191° |
| 2026-05-06 23:49 | -19.38995 | 177.19937 | 37674 ft | 415 kts | 191° |
| 2026-05-06 23:49 | -19.41861 | 177.19593 | 38039 ft | 413 kts | 192° |
| 2026-05-06 23:49 | -19.44714 | 177.19251 | 38436 ft | 412 kts | 192° |
| 2026-05-06 23:50 | -19.47549 | 177.18913 | 38813 ft | 409 kts | 192° |
| 2026-05-06 23:50 | -19.53174 | 177.18250 | 39245 ft | 411 kts | 192° |
| 2026-05-06 23:50 | -19.56016 | 177.17918 | 39439 ft | 412 kts | 192° |
| 2026-05-06 23:51 | -19.58875 | 177.17584 | 39649 ft | 413 kts | 192° |
| 2026-05-06 23:51 | -19.61728 | 177.17252 | 39848 ft | 413 kts | 192° |
| 2026-05-06 23:51 | -19.64589 | 177.16919 | 40045 ft | 414 kts | 192° |
| 2026-05-06 23:51 | -19.67454 | 177.16586 | 40258 ft | 415 kts | 192° |
| 2026-05-06 23:52 | -19.70331 | 177.16252 | 40444 ft | 415 kts | 192° |
| 2026-05-06 23:52 | -19.73200 | 177.15918 | 40643 ft | 416 kts | 192° |
| 2026-05-06 23:52 | -19.76044 | 177.15587 | 40830 ft | 416 kts | 192° |
| 2026-05-06 23:52 | -19.78928 | 177.15250 | 40994 ft | 419 kts | 192° |
| 2026-05-06 23:53 | -19.84761 | 177.14568 | 40988 ft | 422 kts | 192° |
| 2026-05-06 23:53 | -19.90589 | 177.13890 | 40983 ft | 421 kts | 192° |
| 2026-05-06 23:54 | -19.96374 | 177.13216 | 40987 ft | 421 kts | 192° |
| 2026-05-06 23:54 | -20.02193 | 177.12536 | 40987 ft | 421 kts | 192° |
| 2026-05-06 23:55 | -20.08013 | 177.11855 | 40994 ft | 421 kts | 192° |
| 2026-05-06 23:55 | -20.13836 | 177.11173 | 40991 ft | 421 kts | 192° |
| 2026-05-06 23:56 | -20.19609 | 177.10497 | 40991 ft | 420 kts | 192° |
| 2026-05-06 23:56 | -20.25420 | 177.09816 | 40990 ft | 420 kts | 192° |
| 2026-05-06 23:57 | -20.31225 | 177.09130 | 40990 ft | 420 kts | 192° |
| 2026-05-06 23:57 | -20.37034 | 177.08442 | 40993 ft | 420 kts | 192° |
| 2026-05-06 23:58 | -20.42801 | 177.07760 | 40993 ft | 420 kts | 192° |
| 2026-05-06 23:58 | -20.48604 | 177.07073 | 40995 ft | 419 kts | 192° |
| 2026-05-06 23:59 | -20.54402 | 177.06387 | 40993 ft | 419 kts | 192° |
| 2026-05-06 23:59 | -20.60189 | 177.05701 | 40999 ft | 419 kts | 192° |
| 2026-05-07 00:00 | -20.65943 | 177.05017 | 41001 ft | 419 kts | 192° |
| 2026-05-07 00:00 | -20.71728 | 177.04330 | 41004 ft | 418 kts | 192° |
| 2026-05-07 00:01 | -20.77518 | 177.03642 | 41002 ft | 418 kts | 192° |
| 2026-05-07 00:01 | -20.83302 | 177.02954 | 41001 ft | 418 kts | 192° |
| 2026-05-07 00:02 | -20.89036 | 177.02272 | 41001 ft | 417 kts | 192° |
| 2026-05-07 00:02 | -20.94811 | 177.01584 | 41001 ft | 417 kts | 192° |
| 2026-05-07 00:03 | -21.00580 | 177.00896 | 41004 ft | 417 kts | 192° |
| 2026-05-07 00:03 | -21.06355 | 177.00207 | 41004 ft | 417 kts | 192° |
| 2026-05-07 00:04 | -21.12087 | 176.99523 | 41023 ft | 417 kts | 192° |
| 2026-05-07 00:04 | -21.17859 | 176.98833 | 41007 ft | 417 kts | 192° |
| 2026-05-07 00:05 | -21.23618 | 176.98145 | 41005 ft | 417 kts | 192° |
| 2026-05-07 00:05 | -21.29381 | 176.97455 | 41007 ft | 417 kts | 192° |
| 2026-05-07 00:06 | -21.35102 | 176.96770 | 41004 ft | 417 kts | 192° |
| 2026-05-07 00:06 | -21.40865 | 176.96079 | 41007 ft | 417 kts | 192° |
| 2026-05-07 00:07 | -21.46624 | 176.95388 | 41007 ft | 417 kts | 192° |
| 2026-05-07 00:07 | -21.52388 | 176.94696 | 41004 ft | 417 kts | 192° |
| 2026-05-07 00:08 | -21.58110 | 176.94008 | 41012 ft | 417 kts | 192° |
| 2026-05-07 00:08 | -21.63875 | 176.93315 | 41012 ft | 417 kts | 192° |
| 2026-05-07 00:09 | -21.69645 | 176.92621 | 41012 ft | 417 kts | 192° |
| 2026-05-07 00:09 | -21.75409 | 176.91927 | 41012 ft | 417 kts | 192° |
| 2026-05-07 00:10 | -21.81139 | 176.91237 | 41019 ft | 416 kts | 192° |
| 2026-05-07 00:10 | -21.86890 | 176.90543 | 41017 ft | 416 kts | 192° |
| 2026-05-07 00:11 | -21.92641 | 176.89849 | 41019 ft | 416 kts | 192° |
| 2026-05-07 00:11 | -21.98389 | 176.89154 | 41011 ft | 416 kts | 192° |
| 2026-05-07 00:12 | -22.04103 | 176.88462 | 41019 ft | 416 kts | 192° |
| 2026-05-07 00:12 | -22.09852 | 176.87767 | 41020 ft | 416 kts | 192° |
| 2026-05-07 00:13 | -22.15603 | 176.87070 | 41015 ft | 415 kts | 193° |
| 2026-05-07 00:13 | -22.21340 | 176.86375 | 41021 ft | 415 kts | 193° |
| 2026-05-07 00:14 | -22.27036 | 176.85684 | 41015 ft | 415 kts | 193° |
| 2026-05-07 00:14 | -22.32775 | 176.84987 | 41020 ft | 415 kts | 193° |
| 2026-05-07 00:15 | -22.38510 | 176.84290 | 41024 ft | 415 kts | 193° |
| 2026-05-07 00:15 | -22.44249 | 176.83592 | 41042 ft | 415 kts | 193° |
| 2026-05-07 00:16 | -22.49941 | 176.82899 | 41023 ft | 414 kts | 193° |
| 2026-05-07 00:16 | -22.55670 | 176.82202 | 41028 ft | 414 kts | 193° |
| 2026-05-07 00:17 | -22.61395 | 176.81503 | 41026 ft | 414 kts | 193° |
| 2026-05-07 00:17 | -22.67125 | 176.80804 | 41026 ft | 414 kts | 193° |
| 2026-05-07 00:18 | -22.72813 | 176.80109 | 41029 ft | 414 kts | 193° |
| 2026-05-07 00:18 | -22.78539 | 176.79409 | 41034 ft | 414 kts | 193° |
| 2026-05-07 00:19 | -22.84262 | 176.78710 | 41033 ft | 413 kts | 193° |
| 2026-05-07 00:19 | -22.89977 | 176.78010 | 41033 ft | 413 kts | 193° |
| 2026-05-07 00:20 | -22.95659 | 176.77313 | 41037 ft | 414 kts | 193° |
| 2026-05-07 00:20 | -23.01375 | 176.76612 | 41038 ft | 414 kts | 193° |
| 2026-05-07 00:21 | -23.07096 | 176.75910 | 41035 ft | 414 kts | 193° |
| 2026-05-07 00:21 | -23.12811 | 176.75208 | 41041 ft | 413 kts | 193° |
| 2026-05-07 00:22 | -23.18483 | 176.74511 | 41038 ft | 413 kts | 193° |
| 2026-05-07 00:22 | -23.24187 | 176.73809 | 41041 ft | 413 kts | 193° |
| 2026-05-07 00:23 | -23.29896 | 176.73105 | 41038 ft | 413 kts | 193° |
| 2026-05-07 00:23 | -23.35600 | 176.72402 | 41041 ft | 413 kts | 193° |
| 2026-05-07 00:24 | -23.41272 | 176.71702 | 41056 ft | 413 kts | 193° |
| 2026-05-07 00:24 | -23.46975 | 176.70998 | 41046 ft | 412 kts | 193° |
| 2026-05-07 00:25 | -23.52676 | 176.70293 | 41044 ft | 412 kts | 193° |
| 2026-05-07 00:25 | -23.58380 | 176.69588 | 41045 ft | 412 kts | 193° |
| 2026-05-07 00:26 | -23.64047 | 176.68886 | 41045 ft | 412 kts | 193° |
| 2026-05-07 00:26 | -23.69748 | 176.68179 | 41045 ft | 412 kts | 193° |
| 2026-05-07 00:27 | -23.75454 | 176.67472 | 41050 ft | 412 kts | 193° |
| 2026-05-07 00:27 | -23.81155 | 176.66764 | 41050 ft | 412 kts | 193° |
| 2026-05-07 00:28 | -23.86817 | 176.66061 | 41053 ft | 412 kts | 193° |
| 2026-05-07 00:28 | -23.92523 | 176.65351 | 41053 ft | 412 kts | 193° |
| 2026-05-07 00:29 | -23.98224 | 176.64641 | 41056 ft | 413 kts | 193° |
| 2026-05-07 00:30 | -24.09594 | 176.63224 | 41058 ft | 413 kts | 192° |
| 2026-05-07 00:30 | -24.15309 | 176.62511 | 41059 ft | 413 kts | 192° |
| 2026-05-07 00:31 | -24.21017 | 176.61798 | 41059 ft | 413 kts | 192° |
| 2026-05-07 00:31 | -24.26727 | 176.61084 | 41061 ft | 413 kts | 192° |
| 2026-05-07 00:32 | -24.32401 | 176.60374 | 41061 ft | 413 kts | 192° |
| 2026-05-07 00:32 | -24.38111 | 176.59658 | 41072 ft | 413 kts | 192° |
| 2026-05-07 00:33 | -24.43828 | 176.58941 | 41063 ft | 414 kts | 192° |
| 2026-05-07 00:33 | -24.49516 | 176.58228 | 41069 ft | 414 kts | 192° |
| 2026-05-07 00:34 | -24.55237 | 176.57510 | 41068 ft | 414 kts | 192° |
| 2026-05-07 00:34 | -24.60961 | 176.56790 | 41069 ft | 414 kts | 192° |
| 2026-05-07 00:35 | -24.66680 | 176.56071 | 41066 ft | 414 kts | 192° |
| 2026-05-07 00:35 | -24.72366 | 176.55354 | 41067 ft | 414 kts | 192° |
| 2026-05-07 00:36 | -24.78086 | 176.54633 | 41072 ft | 414 kts | 192° |
| 2026-05-07 00:36 | -24.83809 | 176.53911 | 41072 ft | 414 kts | 192° |
| 2026-05-07 00:37 | -24.89527 | 176.53189 | 41072 ft | 414 kts | 192° |
| 2026-05-07 00:37 | -24.95212 | 176.52471 | 41072 ft | 414 kts | 192° |
| 2026-05-07 00:38 | -25.00932 | 176.51747 | 41081 ft | 414 kts | 192° |
| 2026-05-07 00:38 | -25.06658 | 176.51022 | 41080 ft | 414 kts | 192° |
| 2026-05-07 00:39 | -25.12392 | 176.50296 | 41083 ft | 415 kts | 192° |
| 2026-05-07 00:39 | -25.18120 | 176.49570 | 41078 ft | 415 kts | 192° |
| 2026-05-07 00:40 | -25.23815 | 176.48847 | 41086 ft | 414 kts | 192° |
| 2026-05-07 00:40 | -25.29543 | 176.48120 | 41101 ft | 415 kts | 192° |
| 2026-05-07 00:41 | -25.35282 | 176.47389 | 41088 ft | 415 kts | 192° |
| 2026-05-07 00:41 | -25.41027 | 176.46658 | 41081 ft | 416 kts | 192° |
| 2026-05-07 00:42 | -25.46737 | 176.45932 | 41096 ft | 416 kts | 192° |
| 2026-05-07 00:42 | -25.52488 | 176.45199 | 41088 ft | 416 kts | 192° |
| 2026-05-07 00:43 | -25.58233 | 176.44466 | 41094 ft | 416 kts | 192° |
| 2026-05-07 00:43 | -25.63987 | 176.43730 | 41093 ft | 417 kts | 192° |
| 2026-05-07 00:44 | -25.69712 | 176.42998 | 41091 ft | 417 kts | 192° |
| 2026-05-07 00:44 | -25.75486 | 176.42259 | 41097 ft | 417 kts | 192° |
| 2026-05-07 00:45 | -25.81254 | 176.41521 | 41094 ft | 417 kts | 192° |
| 2026-05-07 00:45 | -25.87026 | 176.40781 | 41100 ft | 417 kts | 192° |
| 2026-05-07 00:46 | -25.92755 | 176.40045 | 41106 ft | 418 kts | 192° |
| 2026-05-07 00:46 | -25.98539 | 176.39301 | 41105 ft | 419 kts | 192° |
| 2026-05-07 00:47 | -26.04327 | 176.38557 | 41102 ft | 419 kts | 192° |
| 2026-05-07 00:47 | -26.10116 | 176.37812 | 41107 ft | 419 kts | 192° |
| 2026-05-07 00:48 | -26.15869 | 176.37071 | 41105 ft | 419 kts | 192° |
| 2026-05-07 00:48 | -26.21656 | 176.36324 | 41124 ft | 419 kts | 192° |
| 2026-05-07 00:49 | -26.27460 | 176.35574 | 41107 ft | 421 kts | 192° |
| 2026-05-07 00:49 | -26.33276 | 176.34822 | 41106 ft | 421 kts | 192° |
| 2026-05-07 00:50 | -26.39058 | 176.34075 | 41110 ft | 421 kts | 192° |
| 2026-05-07 00:50 | -26.44883 | 176.33321 | 41113 ft | 421 kts | 192° |
| 2026-05-07 00:51 | -26.50703 | 176.32566 | 41118 ft | 421 kts | 192° |
| 2026-05-07 00:51 | -26.56531 | 176.31810 | 41118 ft | 422 kts | 192° |
| 2026-05-07 00:52 | -26.62372 | 176.31050 | 41119 ft | 423 kts | 192° |
| 2026-05-07 00:52 | -26.68184 | 176.30295 | 41116 ft | 423 kts | 192° |
| 2026-05-07 00:53 | -26.74030 | 176.29534 | 41119 ft | 423 kts | 192° |
| 2026-05-07 00:53 | -26.79879 | 176.28772 | 41119 ft | 423 kts | 192° |
| 2026-05-07 00:54 | -26.85688 | 176.28014 | 41128 ft | 424 kts | 191° |
| 2026-05-07 00:54 | -26.91555 | 176.27247 | 41124 ft | 425 kts | 191° |
| 2026-05-07 00:55 | -26.97438 | 176.26478 | 41125 ft | 425 kts | 191° |
| 2026-05-07 00:55 | -27.03315 | 176.25710 | 41123 ft | 425 kts | 191° |
| 2026-05-07 00:56 | -27.09157 | 176.24945 | 41129 ft | 425 kts | 191° |
| 2026-05-07 00:56 | -27.15034 | 176.24174 | 41131 ft | 426 kts | 191° |